Home > Products > Valid Products > TAF

000
FTUS43 KLOT 300248 AAA
TAFGYY
TAF AMD
KGYY 300248Z 3003/3024 27007KT P6SM SKC
     FM301600 28014G22KT P6SM FEW070=



000
FTUS43 KLOT 300248 AAA
TAFORD
TAF AMD
KORD 300248Z 3003/3106 27007KT P6SM SKC
     FM301600 29016G24KT P6SM FEW070
     FM310200 28008KT P6SM SKC=



000
FTUS43 KLOT 300248 AAA
TAFMDW
TAF AMD
KMDW 300248Z 3003/3024 27007KT P6SM SKC
     FM301600 29016G24KT P6SM FEW070=



000
FTUS43 KLOT 300248 AAA
TAFDPA
TAF AMD
KDPA 300248Z 3003/3024 27006KT P6SM SKC
     FM301600 28016G24KT P6SM FEW070=



000
FTUS43 KLOT 300248 AAA
TAFRFD
TAF AMD
KRFD 300248Z 3003/3024 26006KT P6SM SKC
     FM301600 29016G24KT P6SM FEW070=



000
FTUS43 KLOT 300248 AAA
TAFGYY
TAF AMD
KGYY 300248Z 3003/3024 27007KT P6SM SKC
     FM301600 28014G22KT P6SM FEW070=



000
FTUS43 KLOT 292320
TAFORD
TAF
KORD 292320Z 3000/3106 28012G18KT P6SM FEW250
     FM300200 27007KT P6SM SKC
     FM301600 29016G24KT P6SM FEW070
     FM310200 28008KT P6SM SKC=



000
FTUS43 KLOT 292320
TAFGYY
TAF
KGYY 292320Z 3000/3024 27013G20KT P6SM FEW200
     FM300200 27007KT P6SM SKC
     FM301600 28014G22KT P6SM FEW070=



000
FTUS43 KLOT 292320
TAFMDW
TAF
KMDW 292320Z 3000/3024 28012G18KT P6SM FEW250
     FM300200 27008KT P6SM SKC
     FM301600 29016G24KT P6SM FEW070=



000
FTUS43 KLOT 292320
TAFGYY
TAF
KGYY 292320Z 3000/3024 27013G20KT P6SM FEW200
     FM300200 27007KT P6SM SKC
     FM301600 28014G22KT P6SM FEW070=



000
FTUS43 KLOT 292320
TAFDPA
TAF
KDPA 292320Z 3000/3024 29012G18KT P6SM FEW250
     FM300100 27006KT P6SM SKC
     FM301600 28016G24KT P6SM FEW070=



000
FTUS43 KLOT 292320
TAFRFD
TAF
KRFD 292320Z 3000/3024 27011G18KT P6SM FEW250
     FM300100 26006KT P6SM SKC
     FM301600 29016G24KT P6SM FEW070=



000
FTUS43 KLOT 292201 AAB
TAFGYY
TAF AMD
KGYY 292201Z 2922/3018 35006KT P6SM SCT200
     FM300100 26007KT P6SM SKC
     FM301600 30010G19KT P6SM SKC=



000
FTUS43 KLOT 292201 AAB
TAFGYY
TAF AMD
KGYY 292201Z 2922/3018 35006KT P6SM SCT200
     FM300100 26007KT P6SM SKC
     FM301600 30010G19KT P6SM SKC=



000
FTUS43 KLOT 292201 AAB
TAFORD
TAF AMD
KORD 292201Z 2922/3024 28013G20KT P6SM FEW050 SCT250
     FM300100 27008KT P6SM SKC
     FM301600 30012G22KT P6SM SKC=



000
FTUS43 KLOT 292201 AAB
TAFDPA
TAF AMD
KDPA 292201Z 2922/3018 28013G20KT P6SM SCT250
     FM300100 26007KT P6SM SKC
     FM301600 30012G22KT P6SM SKC=



000
FTUS43 KLOT 292201 AAB
TAFMDW
TAF AMD
KMDW 292201Z 2922/3018 29013G20KT P6SM FEW070 SCT250
     FM300100 27008KT P6SM SKC
     FM301600 30012G22KT P6SM SKC=



000
FTUS43 KLOT 292201 AAB
TAFRFD
TAF AMD
KRFD 292201Z 2922/3018 27013G20KT P6SM FEW250
     FM300100 26006KT P6SM SKC
     FM301600 30012G20KT P6SM SKC=



000
FTUS43 KLOT 291956 AAA
TAFDPA
TAF AMD
KDPA 291956Z 2920/3018 28013G20KT P6SM FEW250
     FM300100 26007KT P6SM SKC
     FM301600 30012G22KT P6SM SKC=



000
FTUS43 KLOT 291956 AAA
TAFORD
TAF AMD
KORD 291956Z 2920/3024 30013G19KT P6SM FEW250
     FM300100 27008KT P6SM SKC
     FM301600 30012G22KT P6SM SKC=



000
FTUS43 KLOT 291956 AAA
TAFRFD
TAF AMD
KRFD 291956Z 2920/3018 28013G20KT P6SM FEW250
     FM300100 26006KT P6SM SKC
     FM301600 30012G20KT P6SM SKC=



000
FTUS43 KLOT 291956 AAA
TAFMDW
TAF AMD
KMDW 291956Z 2920/3018 29013G19KT P6SM FEW250
     FM300100 27008KT P6SM SKC
     FM301600 30012G22KT P6SM SKC=



000
FTUS43 KLOT 291956 AAA
TAFGYY
TAF AMD
KGYY 291956Z 2920/3018 33006KT P6SM FEW250
     FM300100 26007KT P6SM SKC
     FM301600 30010G19KT P6SM SKC=



000
FTUS43 KLOT 291956 AAA
TAFGYY
TAF AMD
KGYY 291956Z 2920/3018 33006KT P6SM FEW250
     FM300100 26007KT P6SM SKC
     FM301600 30010G19KT P6SM SKC=



000
FTUS43 KLOT 291725
TAFDPA
TAF
KDPA 291725Z 2918/3018 30013G20KT P6SM FEW250
     FM300100 26007KT P6SM SKC
     FM301600 30012G22KT P6SM SKC=



000
FTUS43 KLOT 291725
TAFMDW
TAF
KMDW 291725Z 2918/3018 30013G19KT P6SM FEW250
     FM300100 27008KT P6SM SKC
     FM301600 30012G22KT P6SM SKC=



000
FTUS43 KLOT 291725
TAFORD
TAF
KORD 291725Z 2918/3024 30013G19KT P6SM FEW250
     FM300100 27008KT P6SM SKC
     FM301600 30012G22KT P6SM SKC=



000
FTUS43 KLOT 291725
TAFGYY
TAF
KGYY 291725Z 2918/3018 30012G19KT P6SM FEW250
     FM300100 26007KT P6SM SKC
     FM301600 30010G19KT P6SM SKC=



000
FTUS43 KLOT 291725
TAFRFD
TAF
KRFD 291725Z 2918/3018 31013G20KT P6SM SCT250
     FM300100 26006KT P6SM SKC
     FM301600 30012G20KT P6SM SKC=



000
FTUS43 KLOT 291725
TAFGYY
TAF
KGYY 291725Z 2918/3018 30012G19KT P6SM FEW250
     FM300100 26007KT P6SM SKC
     FM301600 30010G19KT P6SM SKC=



000
FTUS43 KLOT 291600 AAB
TAFORD
TAF AMD
KORD 291600Z 2916/3018 32013G19KT P6SM SCT020 BKN200
     FM291700 30013G19KT P6SM FEW250
     FM300100 27008KT P6SM SKC=



000
FTUS43 KLOT 291600 AAB
TAFGYY
TAF AMD
KGYY 291600Z 2916/3012 30011KT P6SM BKN020 BKN200
     FM291700 30012G19KT P6SM FEW250
     FM300100 26007KT P6SM SKC=



000
FTUS43 KLOT 291600 AAB
TAFDPA
TAF AMD
KDPA 291600Z 2916/3012 30012G18KT P6SM FEW015 SCT200
     FM291700 30013G20KT P6SM FEW250
     FM300100 26007KT P6SM SKC=



000
FTUS43 KLOT 291600 AAB
TAFGYY
TAF AMD
KGYY 291600Z 2916/3012 30011KT P6SM BKN020 BKN200
     FM291700 30012G19KT P6SM FEW250
     FM300100 26007KT P6SM SKC=



000
FTUS43 KLOT 291600 AAB
TAFMDW
TAF AMD
KMDW 291600Z 2916/3012 32013G19KT P6SM SCT020 BKN200
     FM291700 30013G19KT P6SM FEW250
     FM300100 27008KT P6SM SKC=



000
FTUS43 KLOT 291600 AAB
TAFRFD
TAF AMD
KRFD 291600Z 2916/3012 31013G20KT P6SM SCT250
     FM300100 26006KT P6SM SKC=



000
FTUS43 KLOT 291358 AAA
TAFDPA
TAF AMD
KDPA 291358Z 2914/3012 34012KT P6SM BKN010 BKN080
     FM291500 30011G16KT P6SM FEW015 BKN200
     FM291700 29013G20KT P6SM FEW250
     FM300100 26007KT P6SM SKC=



000
FTUS43 KLOT 291358 AAA
TAFRFD
TAF AMD
KRFD 291358Z 2914/3012 35010KT P6SM SCT015 BKN080
     FM291500 31011G16KT P6SM FEW015 BKN150
     FM291600 29013G20KT P6SM FEW250
     FM300100 26006KT P6SM SKC=



000
FTUS43 KLOT 291358 AAA
TAFGYY
TAF AMD
KGYY 291358Z 2914/3012 28009KT P6SM SCT015 BKN180
     FM291500 30011G16KT P6SM FEW020 BKN200
     FM291700 30012G19KT P6SM FEW250
     FM300100 26007KT P6SM SKC=



000
FTUS43 KLOT 291358 AAA
TAFMDW
TAF AMD
KMDW 291358Z 2914/3012 30009KT P6SM SCT015 BKN180
     FM291500 30011G16KT P6SM FEW020 BKN200
     FM291700 29013G19KT P6SM FEW250
     FM300100 27008KT P6SM SKC=



000
FTUS43 KLOT 291358 AAA
TAFGYY
TAF AMD
KGYY 291358Z 2914/3012 28009KT P6SM SCT015 BKN180
     FM291500 30011G16KT P6SM FEW020 BKN200
     FM291700 30012G19KT P6SM FEW250
     FM300100 26007KT P6SM SKC=



000
FTUS43 KLOT 291358 AAA
TAFORD
TAF AMD
KORD 291358Z 2914/3018 31010KT P6SM SCT015 BKN180
     FM291500 30011G16KT P6SM FEW020 BKN200
     FM291700 29013G19KT P6SM FEW250
     FM300100 27008KT P6SM SKC=



000
FTUS43 KLOT 291132
TAFRFD
TAF
KRFD 291132Z 2912/3012 30010KT P6SM SCT015 BKN080
      TEMPO 2912/2914 BKN015
     FM291400 31011G16KT P6SM FEW015 BKN150
     FM291600 29013G20KT P6SM FEW250
     FM300100 26006KT P6SM SKC=



000
FTUS43 KLOT 291132
TAFDPA
TAF
KDPA 291132Z 2912/3012 28009KT P6SM SCT015 BKN080
     FM291400 30011G16KT P6SM FEW015 BKN200
     FM291700 29013G20KT P6SM FEW250
     FM300100 26007KT P6SM SKC=



000
FTUS43 KLOT 291132
TAFMDW
TAF
KMDW 291132Z 2912/3012 27009KT P6SM SCT020 BKN080
     FM291400 30011G16KT P6SM FEW020 BKN200
     FM291700 29013G19KT P6SM FEW250
     FM300100 27008KT P6SM SKC=



000
FTUS43 KLOT 291132
TAFGYY
TAF
KGYY 291132Z 2912/3012 27009KT P6SM SCT020 BKN080
     FM291500 30011G16KT P6SM FEW020 BKN200
     FM291700 30012G19KT P6SM FEW250
     FM300100 26007KT P6SM SKC=



000
FTUS43 KLOT 291132
TAFORD
TAF
KORD 291132Z 2912/3018 27009KT P6SM SCT020 BKN080
     FM291400 30011G16KT P6SM FEW020 BKN200
     FM291700 29013G19KT P6SM FEW250
     FM300100 27008KT P6SM SKC=



000
FTUS43 KLOT 291132
TAFGYY
TAF
KGYY 291132Z 2912/3012 27009KT P6SM SCT020 BKN080
     FM291500 30011G16KT P6SM FEW020 BKN200
     FM291700 30012G19KT P6SM FEW250
     FM300100 26007KT P6SM SKC=



000
FTUS43 KLOT 290900 AAA
TAFRFD
TAF AMD
KRFD 290900Z 2909/3006 25008KT P6SM VCTS SCT020 OVC040CB
      TEMPO 2911/2913 4SM SHRA BKN020
     FM291300 29011G16KT P6SM SCT020 BKN150
     FM291500 29013G20KT P6SM FEW250
     FM300100 26006KT P6SM FEW250=



000
FTUS43 KLOT 290900 AAA
TAFMDW
TAF AMD
KMDW 290900Z 2909/3006 22006KT P6SM FEW020 BKN080
     FM291100 25008KT P6SM VCSH SCT020 OVC040
     FM291400 29011G16KT P6SM SCT020 BKN150
     FM291600 29012G19KT P6SM FEW250
     FM300100 27008KT P6SM FEW250=



000
FTUS43 KLOT 290900 AAB
TAFDPA
TAF AMD
KDPA 290900Z 2909/3006 22006KT P6SM SCT020 BKN080
     FM291100 25008KT P6SM VCSH SCT020 OVC040
     FM291300 29011G16KT P6SM SCT020 BKN150
     FM291600 29013G20KT P6SM FEW250
     FM300100 26007KT P6SM FEW250=



000
FTUS43 KLOT 290900 AAA
TAFORD
TAF AMD
KORD 290900Z 2909/3012 22006KT P6SM FEW020 BKN080
     FM291100 25008KT P6SM VCSH SCT020 OVC040
     FM291400 29011G16KT P6SM SCT020 BKN150
     FM291600 29012G19KT P6SM FEW250
     FM300100 27008KT P6SM FEW250=



000
FTUS43 KLOT 290900 AAA
TAFGYY
TAF AMD
KGYY 290900Z 2909/3006 22006KT P6SM VCSH SCT020 BKN080
     FM291100 25008KT P6SM VCSH SCT020 OVC040
     FM291400 29011G16KT P6SM SCT020 BKN150
     FM291700 30012G19KT P6SM FEW250
     FM300100 27008KT P6SM FEW250=



000
FTUS43 KLOT 290900 AAA
TAFGYY
TAF AMD
KGYY 290900Z 2909/3006 22006KT P6SM VCSH SCT020 BKN080
     FM291100 25008KT P6SM VCSH SCT020 OVC040
     FM291400 29011G16KT P6SM SCT020 BKN150
     FM291700 30012G19KT P6SM FEW250
     FM300100 27008KT P6SM FEW250=



000
FTUS43 KLOT 290613 AAA
TAFDPA
TAF AMD
KDPA 290613Z 2906/3006 20006KT P6SM VCSH SCT020 BKN080
      TEMPO 2906/2908 3SM TSRA BKN020 OVC040CB
     FM291000 25008KT P6SM VCSH SCT020 OVC040
     FM291300 29011G16KT P6SM SCT020 BKN150
     FM291600 29013G20KT P6SM FEW250
     FM300100 26007KT P6SM FEW250=



000
FTUS43 KLOT 290613 AAA
TAFDPA
TAF AMD
KDPA 290613Z 2906/3006 20006KT P6SM VCSH SCT020 BKN080
      TEMPO 2906/2908 3SM TSRA BKN020 OVC040CB
     FM291000 25008KT P6SM VCSH SCT020 OVC040
     FM291300 29011G16KT P6SM SCT020 BKN150
     FM291600 29013G20KT P6SM FEW250
     FM300100 26007KT P6SM FEW250=



000
FTUS43 KLOT 290532
TAFGYY
TAF
KGYY 290532Z 2906/3006 18005KT P6SM VCSH SCT040 BKN080
      TEMPO 2908/2911 3SM TSRA BKN020 OVC040CB
     FM291100 25008KT P6SM VCSH SCT020 OVC040
     FM291400 29011G16KT P6SM SCT020 BKN150
     FM291700 30012G19KT P6SM FEW250
     FM300100 27008KT P6SM FEW250=



000
FTUS43 KLOT 290532
TAFDPA
TAF
KDPA 290532Z 2906/3006 20006KT P6SM VCSH SCT020 BKN080
      TEMPO 2907/2910 3SM TSRA BKN020 OVC040CB
     FM291000 25008KT P6SM VCSH SCT020 OVC040
     FM291300 29011G16KT P6SM SCT020 BKN150
     FM291600 29013G20KT P6SM FEW250
     FM300100 26007KT P6SM FEW250=



000
FTUS43 KLOT 290532
TAFRFD
TAF
KRFD 290532Z 2906/3006 21006KT P6SM VCTS SCT020 OVC040CB
     FM290800 25008KT P6SM VCSH BKN020
     FM291200 29011G16KT P6SM SCT020 BKN150
     FM291500 29013G20KT P6SM FEW250
     FM300100 26006KT P6SM FEW250=



000
FTUS43 KLOT 290532
TAFMDW
TAF
KMDW 290532Z 2906/3006 20006KT P6SM VCSH SCT040 BKN080
      TEMPO 2908/2910 3SM TSRA BKN020 OVC040CB
     FM291000 25008KT P6SM VCSH SCT020 OVC040
     FM291300 29011G16KT P6SM SCT020 BKN150
     FM291600 29012G19KT P6SM FEW250
     FM300100 27008KT P6SM FEW250=



000
FTUS43 KLOT 290532
TAFORD
TAF
KORD 290532Z 2906/3012 21006KT P6SM VCSH SCT040 BKN080
      TEMPO 2908/2910 3SM TSRA BKN020 OVC040CB
     FM291000 25008KT P6SM VCSH SCT020 OVC040
     FM291300 29011G16KT P6SM SCT020 BKN150
     FM291600 29012G19KT P6SM FEW250
     FM300100 27008KT P6SM FEW250=



000
FTUS43 KLOT 290532
TAFGYY
TAF
KGYY 290532Z 2906/3006 18005KT P6SM VCSH SCT040 BKN080
      TEMPO 2908/2911 3SM TSRA BKN020 OVC040CB
     FM291100 25008KT P6SM VCSH SCT020 OVC040
     FM291400 29011G16KT P6SM SCT020 BKN150
     FM291700 30012G19KT P6SM FEW250
     FM300100 27008KT P6SM FEW250=



000
FTUS43 KLOT 290254 AAA
TAFMDW
TAF AMD
KMDW 290254Z 2903/2924 22006KT P6SM SCT050 SCT100 BKN150
     FM290500 22006KT P6SM VCSH BKN070 BKN100
     FM291000 24008KT 6SM -SHRA VCTS SCT020 OVC040CB
     FM291300 29011G16KT P6SM SCT020 BKN100
     FM291800 29012G19KT P6SM SCT150=



000
FTUS43 KLOT 290254 AAA
TAFRFD
TAF AMD
KRFD 290254Z 2903/2924 17007KT P6SM VCSH BKN070 BKN100
     FM290700 20009KT 5SM SHRA VCTS SCT020 OVC040CB
     FM291100 29011G16KT P6SM SCT040 BKN140
     FM291800 29013G20KT P6SM SCT150=



000
FTUS43 KLOT 290254 AAA
TAFGYY
TAF AMD
KGYY 290254Z 2903/2924 VRB04KT P6SM BKN250
     FM290600 VRB04KT P6SM VCSH BKN070 BKN100
     FM291000 24007KT 6SM -SHRA VCTS SCT020 OVC040CB
     FM291400 29011G16KT P6SM SCT020 BKN100
     FM291800 29012G19KT P6SM SCT150=



000
FTUS43 KLOT 290254 AAA
TAFDPA
TAF AMD
KDPA 290254Z 2903/2924 22006KT P6SM SCT080 BKN150
     FM290500 22006KT P6SM VCSH BKN070 BKN100
     FM290900 23007KT 6SM -SHRA VCTS SCT020 OVC040CB
     FM291300 29011G16KT P6SM SCT020 BKN100
     FM291800 29012G19KT P6SM SCT150=



000
FTUS43 KLOT 290254 AAA
TAFORD
TAF AMD
KORD 290254Z 2903/3006 22006KT P6SM SCT050 SCT100 BKN150
     FM290500 22006KT P6SM VCSH BKN070 BKN100
     FM291000 24008KT 6SM -SHRA VCTS SCT020 OVC040CB
     FM291300 29011G16KT P6SM SCT020 BKN100
     FM291800 29012G19KT P6SM SCT150
     FM300100 27010KT P6SM SCT250=



000
FTUS43 KLOT 290254 AAA
TAFGYY
TAF AMD
KGYY 290254Z 2903/2924 VRB04KT P6SM BKN250
     FM290600 VRB04KT P6SM VCSH BKN070 BKN100
     FM291000 24007KT 6SM -SHRA VCTS SCT020 OVC040CB
     FM291400 29011G16KT P6SM SCT020 BKN100
     FM291800 29012G19KT P6SM SCT150=



000
FTUS43 KLOT 282320
TAFORD
TAF
KORD 282320Z 2900/3006 19008KT P6SM SCT050 SCT100 BKN150
     FM290500 19008KT P6SM VCSH BKN070 BKN100
     FM291000 26009KT P6SM VCTS SCT020 OVC040CB PROB30 2910/2913 3SM
      TSRA SCT015 OVC030CB
     FM291300 29011G16KT P6SM SCT020 BKN100
     FM291800 29012G19KT P6SM SCT150
     FM300100 27010KT P6SM SCT250=



000
FTUS43 KLOT 282320
TAFRFD
TAF
KRFD 282320Z 2900/2924 20008KT P6SM BKN070 BKN100
     FM290400 20008KT P6SM VCSH BKN070 BKN100
     FM290800 22009KT P6SM VCTS SCT020 OVC040CB PROB30 2909/2911 3SM
      TSRA OVC030CB
     FM291200 29011G16KT P6SM SCT040 BKN140
     FM291800 29013G20KT P6SM SCT150=



000
FTUS43 KLOT 282320
TAFDPA
TAF
KDPA 282320Z 2900/2924 20008KT P6SM SCT050 SCT100 BKN150
     FM290500 18008KT P6SM VCSH BKN070 BKN100
     FM290900 26009KT P6SM VCTS SCT020 OVC040CB PROB30 2910/2913 3SM
      TSRA SCT015 OVC030CB
     FM291300 29011G16KT P6SM SCT020 BKN100
     FM291800 29012G19KT P6SM SCT150=



000
FTUS43 KLOT 282320
TAFRFD
TAF
KRFD 282320Z 2900/2924 20008KT P6SM BKN070 BKN100
     FM290400 20008KT P6SM VCSH BKN070 BKN100
     FM290800 22009KT P6SM VCTS SCT020 OVC040CB PROB30 2909/2911 3SM
      TSRA OVC030CB
     FM291200 29011G16KT P6SM SCT040 BKN140
     FM291800 29013G20KT P6SM SCT150=



000
FTUS43 KLOT 282320
TAFDPA
TAF
KDPA 282320Z 2900/2924 20008KT P6SM SCT050 SCT100 BKN150
     FM290500 18008KT P6SM VCSH BKN070 BKN100
     FM290900 26009KT P6SM VCTS SCT020 OVC040CB PROB30 2910/2913 3SM
      TSRA SCT015 OVC030CB
     FM291300 29011G16KT P6SM SCT020 BKN100
     FM291800 29012G19KT P6SM SCT150=



000
FTUS43 KLOT 282320
TAFMDW
TAF
KMDW 282320Z 2900/2924 19009KT P6SM SCT050 SCT100 BKN150
     FM290500 19007KT P6SM VCSH BKN070 BKN100
     FM291000 26009KT P6SM VCTS SCT020 OVC040CB PROB30 2910/2913 3SM
      TSRA SCT015 OVC030CB
     FM291300 29011G16KT P6SM SCT020 BKN100
     FM291800 29012G19KT P6SM SCT150=



000
FTUS43 KLOT 282320
TAFGYY
TAF
KGYY 282320Z 2900/2924 17009KT P6SM SCT050 SCT100 BKN150
     FM290500 18008KT P6SM VCSH BKN070 BKN100
     FM291000 26009KT P6SM VCTS SCT020 OVC040CB PROB30 2910/2914 3SM
      TSRA SCT015 OVC030CB
     FM291400 29011G16KT P6SM SCT020 BKN100
     FM291800 29012G19KT P6SM SCT150=



000
FTUS43 KLOT 282320
TAFORD
TAF
KORD 282320Z 2900/3006 19008KT P6SM SCT050 SCT100 BKN150
     FM290500 19008KT P6SM VCSH BKN070 BKN100
     FM291000 26009KT P6SM VCTS SCT020 OVC040CB PROB30 2910/2913 3SM
      TSRA SCT015 OVC030CB
     FM291300 29011G16KT P6SM SCT020 BKN100
     FM291800 29012G19KT P6SM SCT150
     FM300100 27010KT P6SM SCT250=



000
FTUS43 KLOT 282320
TAFGYY
TAF
KGYY 282320Z 2900/2924 17009KT P6SM SCT050 SCT100 BKN150
     FM290500 18008KT P6SM VCSH BKN070 BKN100
     FM291000 26009KT P6SM VCTS SCT020 OVC040CB PROB30 2910/2914 3SM
      TSRA SCT015 OVC030CB
     FM291400 29011G16KT P6SM SCT020 BKN100
     FM291800 29012G19KT P6SM SCT150=



000
FTUS43 KLOT 282320
TAFGYY
TAF
KGYY 282320Z 2900/2924 17009KT P6SM SCT050 SCT100 BKN150
     FM290500 18008KT P6SM VCSH BKN070 BKN100
     FM291000 26009KT P6SM VCTS SCT020 OVC040CB PROB30 2910/2914 3SM
      TSRA SCT015 OVC030CB
     FM291400 29011G16KT P6SM SCT020 BKN100
     FM291800 29012G19KT P6SM SCT150=



000
FTUS43 KLOT 282320
TAFMDW
TAF
KMDW 282320Z 2900/2924 19009KT P6SM SCT050 SCT100 BKN150
     FM290500 19007KT P6SM VCSH BKN070 BKN100
     FM291000 26009KT P6SM VCTS SCT020 OVC040CB PROB30 2910/2913 3SM
      TSRA SCT015 OVC030CB
     FM291300 29011G16KT P6SM SCT020 BKN100
     FM291800 29012G19KT P6SM SCT150=



000
FTUS43 KLOT 282320
TAFGYY
TAF
KGYY 282320Z 2900/2924 17009KT P6SM SCT050 SCT100 BKN150
     FM290500 18008KT P6SM VCSH BKN070 BKN100
     FM291000 26009KT P6SM VCTS SCT020 OVC040CB PROB30 2910/2914 3SM
      TSRA SCT015 OVC030CB
     FM291400 29011G16KT P6SM SCT020 BKN100
     FM291800 29012G19KT P6SM SCT150=



000
FTUS43 KLOT 282257 AAE
TAFMDW
TAF AMD
KMDW 282257Z 2823/2918 19010KT P6SM SCT050 SCT100 BKN150
     FM290500 19007KT P6SM VCSH BKN070 BKN100
     FM291000 26009KT P6SM VCTS SCT020 OVC040CB PROB30 2910/2913 3SM
      TSRA
     FM291300 29011G16KT P6SM SCT040 BKN140=



000
FTUS43 KLOT 282257 AAE
TAFORD
TAF AMD
KORD 282257Z 2823/2924 19008KT P6SM SCT050 SCT100 BKN150
     FM290500 19008KT P6SM VCSH BKN070 BKN100
     FM291000 26009KT P6SM VCTS SCT020 OVC040CB PROB30 2910/2913 3SM
      TSRA
     FM291300 29011G16KT P6SM SCT040 BKN140
     FM291800 29012G17KT P6SM SCT110=



000
FTUS43 KLOT 282257 AAE
TAFMDW
TAF AMD
KMDW 282257Z 2823/2918 19010KT P6SM SCT050 SCT100 BKN150
     FM290500 19007KT P6SM VCSH BKN070 BKN100
     FM291000 26009KT P6SM VCTS SCT020 OVC040CB PROB30 2910/2913 3SM
      TSRA
     FM291300 29011G16KT P6SM SCT040 BKN140=



000
FTUS43 KLOT 282222 AAC
TAFGYY
TAF AMD
KGYY 282222Z 2822/2918 15006KT P6SM SCT050 SCT100 BKN150
     FM290500 18008KT P6SM VCSH BKN070 BKN100
     FM291000 26009KT P6SM VCTS SCT020 OVC040CB PROB30 2910/2914 3SM
      TSRA
     FM291400 29011G16KT P6SM SCT040 BKN140=



000
FTUS43 KLOT 282222 AAD
TAFORD
TAF AMD
KORD 282222Z 2822/2924 16008KT P6SM SCT050 BKN250
     FM290000 18008KT P6SM SCT050 SCT100 BKN150
     FM290500 18008KT P6SM VCSH BKN070 BKN100
     FM291000 26009KT P6SM VCTS SCT020 OVC040CB PROB30 2910/2913 3SM
      TSRA
     FM291300 29011G16KT P6SM SCT040 BKN140
     FM291800 29012G17KT P6SM SCT110=



000
FTUS43 KLOT 282222 AAC
TAFRFD
TAF AMD
KRFD 282222Z 2822/2918 20009KT P6SM SCT040 SCT250
     FM290000 20008KT P6SM BKN070 BKN100
     FM290500 20008KT P6SM VCSH BKN070 BKN100
     FM290800 22009KT P6SM VCTS SCT020 OVC040CB PROB30 2908/2911 3SM
      TSRA
     FM291200 29011G16KT P6SM SCT040 BKN140=



000
FTUS43 KLOT 282222 AAC
TAFGYY
TAF AMD
KGYY 282222Z 2822/2918 15006KT P6SM SCT050 SCT100 BKN150
     FM290500 18008KT P6SM VCSH BKN070 BKN100
     FM291000 26009KT P6SM VCTS SCT020 OVC040CB PROB30 2910/2914 3SM
      TSRA
     FM291400 29011G16KT P6SM SCT040 BKN140=



000
FTUS43 KLOT 282222 AAC
TAFDPA
TAF AMD
KDPA 282222Z 2822/2918 20010KT P6SM SCT040 SCT250
     FM290000 20006KT P6SM SCT050 SCT100 BKN150
     FM290500 18008KT P6SM VCSH BKN070 BKN100
     FM290900 26009KT P6SM VCTS SCT020 OVC040CB PROB30 2910/2913 3SM
      TSRA
     FM291300 29011G16KT P6SM SCT040 BKN140=



000
FTUS43 KLOT 282222 AAD
TAFMDW
TAF AMD
KMDW 282222Z 2822/2918 16010KT P6SM SCT040 BKN180
     FM290000 18008KT P6SM SCT050 SCT100 BKN150
     FM290500 18007KT P6SM VCSH BKN070 BKN100
     FM291000 26009KT P6SM VCTS SCT020 OVC040CB PROB30 2910/2913 3SM
      TSRA
     FM291300 29011G16KT P6SM SCT040 BKN140=



000
FTUS43 KLOT 282113 AAC
TAFMDW
TAF AMD
KMDW 282113Z 2821/2918 10012KT P6SM SCT040 BKN180
     FM290000 13005KT P6SM VCSH SCT050 SCT100 BKN150
     FM290400 18008KT P6SM VCTS BKN070CB BKN100 PROB30 2906/2910 3SM
      TSRA OVC050CB
     FM291100 26009KT P6SM VCSH SCT020 OVC040
     FM291300 29011G16KT P6SM SCT040 BKN140=



000
FTUS43 KLOT 282113 AAC
TAFORD
TAF AMD
KORD 282113Z 2821/2924 10012KT P6SM SCT040 BKN250
     FM290000 12008KT P6SM VCSH SCT050 SCT100 BKN150
     FM290400 18008KT P6SM VCTS BKN070CB BKN100 PROB30 2906/2910 3SM
      TSRA OVC050CB
     FM291100 26009KT P6SM VCSH SCT020 OVC040
     FM291300 29011G16KT P6SM SCT040 BKN140
     FM291800 29012G17KT P6SM SCT110=



000
FTUS43 KLOT 281943 AAB
TAFRFD
TAF AMD
KRFD 281943Z 2820/2918 21009KT P6SM SCT040 SCT250
     FM282200 22005KT P6SM VCSH SCT050 SCT100 BKN150
     FM290000 21008KT P6SM VCTS BKN070CB BKN100
      TEMPO 2904/2907 3SM TSRA OVC050CB
     FM290900 26009KT P6SM VCSH SCT020 OVC040
     FM291200 29011G16KT P6SM SCT040 BKN140=



000
FTUS43 KLOT 281943 AAB
TAFDPA
TAF AMD
KDPA 281943Z 2820/2918 23009KT P6SM SCT040 SCT250
     FM282300 22005KT P6SM VCSH SCT050 SCT100 BKN150
     FM290300 18008KT P6SM VCTS BKN070CB BKN100 PROB30 2905/2909 3SM
      TSRA OVC050CB
     FM291000 26009KT P6SM VCSH SCT020 OVC040
     FM291300 29011G16KT P6SM SCT040 BKN140=



000
FTUS43 KLOT 281943 AAB
TAFGYY
TAF AMD
KGYY 281943Z 2820/2918 12007KT P6SM SCT040 SCT250
     FM290000 15005KT P6SM VCSH SCT050 SCT100 BKN150
     FM290400 18008KT P6SM VCTS BKN070CB BKN100 PROB30 2906/2910 3SM
      TSRA OVC050CB
     FM291100 26009KT P6SM VCSH SCT020 OVC040
     FM291300 29011G16KT P6SM SCT040 BKN140=



000
FTUS43 KLOT 281943 AAB
TAFMDW
TAF AMD
KMDW 281943Z 2820/2918 20007KT P6SM SCT040 BKN180
     FM290000 19005KT P6SM VCSH SCT050 SCT100 BKN150
     FM290400 18008KT P6SM VCTS BKN070CB BKN100 PROB30 2906/2910 3SM
      TSRA OVC050CB
     FM291100 26009KT P6SM VCSH SCT020 OVC040
     FM291300 29011G16KT P6SM SCT040 BKN140=



000
FTUS43 KLOT 281943 AAB
TAFORD
TAF AMD
KORD 281943Z 2820/2924 20009KT P6SM SCT040 BKN250
     FM290000 19005KT P6SM VCSH SCT050 SCT100 BKN150
     FM290400 18008KT P6SM VCTS BKN070CB BKN100 PROB30 2906/2910 3SM
      TSRA OVC050CB
     FM291100 26009KT P6SM VCSH SCT020 OVC040
     FM291300 29011G16KT P6SM SCT040 BKN140
     FM291800 29012G17KT P6SM SCT110=



000
FTUS43 KLOT 281943 AAB
TAFRFD
TAF AMD
KRFD 281943Z 2820/2918 21009KT P6SM SCT040 SCT250
     FM282200 22005KT P6SM VCSH SCT050 SCT100 BKN150
     FM290000 21008KT P6SM VCTS BKN070CB BKN100
      TEMPO 2904/2907 3SM TSRA OVC050CB
     FM290900 26009KT P6SM VCSH SCT020 OVC040
     FM291200 29011G16KT P6SM SCT040 BKN140=



000
FTUS43 KLOT 281943 AAB
TAFDPA
TAF AMD
KDPA 281943Z 2820/2918 23009KT P6SM SCT040 SCT250
     FM282300 22005KT P6SM VCSH SCT050 SCT100 BKN150
     FM290300 18008KT P6SM VCTS BKN070CB BKN100 PROB30 2905/2909 3SM
      TSRA OVC050CB
     FM291000 26009KT P6SM VCSH SCT020 OVC040
     FM291300 29011G16KT P6SM SCT040 BKN140=



000
FTUS43 KLOT 281904 AAA
TAFORD
TAF AMD
KORD 281904Z 2819/2924 20007KT P6SM SCT040 SCT250
     FM282000 14010KT P6SM SCT040 BKN180
     FM290000 16005KT P6SM VCSH SCT050 SCT100 BKN150
     FM290400 18008KT P6SM VCTS BKN070CB BKN100 PROB30 2906/2910 3SM
      TSRA OVC050CB
     FM291100 26009KT P6SM VCSH SCT020 OVC040
     FM291300 29011G16KT P6SM SCT040 BKN140
     FM291800 29012G17KT P6SM SCT110=



000
FTUS43 KLOT 281904 AAA
TAFDPA
TAF AMD
KDPA 281904Z 2819/2918 17009KT P6SM SCT040 SCT250
     FM282300 15005KT P6SM VCSH SCT050 SCT100 BKN150
     FM290300 18008KT P6SM VCTS BKN070CB BKN100 PROB30 2905/2909 3SM
      TSRA OVC050CB
     FM291000 26009KT P6SM VCSH SCT020 OVC040
     FM291300 29011G16KT P6SM SCT040 BKN140=



000
FTUS43 KLOT 281904 AAA
TAFGYY
TAF AMD
KGYY 281904Z 2819/2918 12007KT P6SM SCT040 SCT250
     FM290000 15005KT P6SM VCSH SCT050 SCT100 BKN150
     FM290400 18008KT P6SM VCTS BKN070CB BKN100 PROB30 2906/2910 3SM
      TSRA OVC050CB
     FM291100 26009KT P6SM VCSH SCT020 OVC040
     FM291300 29011G16KT P6SM SCT040 BKN140=



000
FTUS43 KLOT 281904 AAA
TAFGYY
TAF AMD
KGYY 281904Z 2819/2918 12007KT P6SM SCT040 SCT250
     FM290000 15005KT P6SM VCSH SCT050 SCT100 BKN150
     FM290400 18008KT P6SM VCTS BKN070CB BKN100 PROB30 2906/2910 3SM
      TSRA OVC050CB
     FM291100 26009KT P6SM VCSH SCT020 OVC040
     FM291300 29011G16KT P6SM SCT040 BKN140=



000
FTUS43 KLOT 281904 AAA
TAFMDW
TAF AMD
KMDW 281904Z 2819/2918 20009KT P6SM SCT040 SCT250
     FM282000 14010KT P6SM SCT040 BKN180
     FM290000 16005KT P6SM VCSH SCT050 SCT100 BKN150
     FM290400 18008KT P6SM VCTS BKN070CB BKN100 PROB30 2906/2910 3SM
      TSRA OVC050CB
     FM291100 26009KT P6SM VCSH SCT020 OVC040
     FM291300 29011G16KT P6SM SCT040 BKN140=



000
FTUS43 KLOT 281904 AAA
TAFRFD
TAF AMD
KRFD 281904Z 2819/2918 18009KT P6SM VCSH SCT040 SCT250
     FM282100 15005KT P6SM VCTS SCT050CB SCT100 BKN150
     FM290000 18008KT P6SM VCTS BKN070CB BKN100 PROB30 2904/2907 3SM
      TSRA OVC050CB
     FM290900 26009KT P6SM VCSH SCT020 OVC040
     FM291200 29011G16KT P6SM SCT040 BKN140=



000
FTUS43 KLOT 281742
TAFRFD
TAF
KRFD 281742Z 2818/2918 18009KT P6SM VCSH SCT040 SCT250
     FM282100 15005KT P6SM VCTS SCT050CB SCT100 BKN150
     FM290000 18008KT P6SM VCTS BKN070CB BKN100 PROB30 2903/2907 3SM
      TSRA OVC050CB
     FM290900 26009KT P6SM VCSH SCT020 OVC040
     FM291200 29011G16KT P6SM SCT040 BKN140=



000
FTUS43 KLOT 281742
TAFGYY
TAF
KGYY 281742Z 2818/2918 12007KT P6SM SCT040 SCT250
     FM290000 15005KT P6SM VCSH SCT050 SCT100 BKN150
     FM290400 18008KT P6SM VCTS BKN070CB BKN100 PROB30 2906/2910 3SM
      TSRA OVC050CB
     FM291100 26009KT P6SM VCSH SCT020 OVC040
     FM291300 29011G16KT P6SM SCT040 BKN140=



000
FTUS43 KLOT 281742
TAFMDW
TAF
KMDW 281742Z 2818/2918 17009KT P6SM SCT040 SCT250
     FM281830 14010KT P6SM SCT040 BKN180
     FM290000 15005KT P6SM VCSH SCT050 SCT100 BKN150
     FM290400 18008KT P6SM VCTS BKN070CB BKN100 PROB30 2906/2910 3SM
      TSRA OVC050CB
     FM291100 26009KT P6SM VCSH SCT020 OVC040
     FM291300 29011G16KT P6SM SCT040 BKN140=



000
FTUS43 KLOT 281742
TAFORD
TAF
KORD 281742Z 2818/2924 17009KT P6SM SCT040 SCT250
     FM281900 14010KT P6SM SCT040 BKN180
     FM290000 15005KT P6SM VCSH SCT050 SCT100 BKN150
     FM290400 18008KT P6SM VCTS BKN070CB BKN100 PROB30 2906/2910 3SM
      TSRA OVC050CB
     FM291100 26009KT P6SM VCSH SCT020 OVC040
     FM291300 29011G16KT P6SM SCT040 BKN140
     FM291800 29012G17KT P6SM SCT110=



000
FTUS43 KLOT 281742
TAFGYY
TAF
KGYY 281742Z 2818/2918 12007KT P6SM SCT040 SCT250
     FM290000 15005KT P6SM VCSH SCT050 SCT100 BKN150
     FM290400 18008KT P6SM VCTS BKN070CB BKN100 PROB30 2906/2910 3SM
      TSRA OVC050CB
     FM291100 26009KT P6SM VCSH SCT020 OVC040
     FM291300 29011G16KT P6SM SCT040 BKN140=



000
FTUS43 KLOT 281742
TAFRFD
TAF
KRFD 281742Z 2818/2918 18009KT P6SM VCSH SCT040 SCT250
     FM282100 15005KT P6SM VCTS SCT050CB SCT100 BKN150
     FM290000 18008KT P6SM VCTS BKN070CB BKN100 PROB30 2903/2907 3SM
      TSRA OVC050CB
     FM290900 26009KT P6SM VCSH SCT020 OVC040
     FM291200 29011G16KT P6SM SCT040 BKN140=



000
FTUS43 KLOT 281742
TAFDPA
TAF
KDPA 281742Z 2818/2918 17009KT P6SM SCT040 SCT250
     FM282300 15005KT P6SM VCSH SCT050 SCT100 BKN150
     FM290300 18008KT P6SM VCTS BKN070CB BKN100 PROB30 2905/2909 3SM
      TSRA OVC050CB
     FM291000 26009KT P6SM VCSH SCT020 OVC040
     FM291300 29011G16KT P6SM SCT040 BKN140=



000
FTUS43 KLOT 281742
TAFGYY
TAF
KGYY 281742Z 2818/2918 12007KT P6SM SCT040 SCT250
     FM290000 15005KT P6SM VCSH SCT050 SCT100 BKN150
     FM290400 18008KT P6SM VCTS BKN070CB BKN100 PROB30 2906/2910 3SM
      TSRA OVC050CB
     FM291100 26009KT P6SM VCSH SCT020 OVC040
     FM291300 29011G16KT P6SM SCT040 BKN140=



000
FTUS43 KLOT 281742
TAFMDW
TAF
KMDW 281742Z 2818/2918 17009KT P6SM SCT040 SCT250
     FM281830 14010KT P6SM SCT040 BKN180
     FM290000 15005KT P6SM VCSH SCT050 SCT100 BKN150
     FM290400 18008KT P6SM VCTS BKN070CB BKN100 PROB30 2906/2910 3SM
      TSRA OVC050CB
     FM291100 26009KT P6SM VCSH SCT020 OVC040
     FM291300 29011G16KT P6SM SCT040 BKN140=



000
FTUS43 KLOT 281742
TAFDPA
TAF
KDPA 281742Z 2818/2918 17009KT P6SM SCT040 SCT250
     FM282300 15005KT P6SM VCSH SCT050 SCT100 BKN150
     FM290300 18008KT P6SM VCTS BKN070CB BKN100 PROB30 2905/2909 3SM
      TSRA OVC050CB
     FM291000 26009KT P6SM VCSH SCT020 OVC040
     FM291300 29011G16KT P6SM SCT040 BKN140=



000
FTUS43 KLOT 281742
TAFORD
TAF
KORD 281742Z 2818/2924 17009KT P6SM SCT040 SCT250
     FM281900 14010KT P6SM SCT040 BKN180
     FM290000 15005KT P6SM VCSH SCT050 SCT100 BKN150
     FM290400 18008KT P6SM VCTS BKN070CB BKN100 PROB30 2906/2910 3SM
      TSRA OVC050CB
     FM291100 26009KT P6SM VCSH SCT020 OVC040
     FM291300 29011G16KT P6SM SCT040 BKN140
     FM291800 29012G17KT P6SM SCT110=



000
FTUS43 KLOT 281742
TAFGYY
TAF
KGYY 281742Z 2818/2918 12007KT P6SM SCT040 SCT250
     FM290000 15005KT P6SM VCSH SCT050 SCT100 BKN150
     FM290400 18008KT P6SM VCTS BKN070CB BKN100 PROB30 2906/2910 3SM
      TSRA OVC050CB
     FM291100 26009KT P6SM VCSH SCT020 OVC040
     FM291300 29011G16KT P6SM SCT040 BKN140=



000
FTUS43 KLOT 281605 AAB
TAFGYY
TAF AMD
KGYY 281605Z 2816/2912 15009KT P6SM SCT050 SCT250
     FM281800 08010KT P6SM FEW050 BKN250
     FM290100 14005KT P6SM SCT120 BKN250
     FM290700 18005KT P6SM BKN050 PROB30 2908/2912 3SM TSRA
      OVC050CB=



000
FTUS43 KLOT 281605 AAB
TAFORD
TAF AMD
KORD 281605Z 2816/2918 15010KT P6SM SCT040 BKN250
     FM290100 14006KT P6SM SCT120 BKN250
     FM290700 19006KT P6SM BKN050 PROB30 2908/2914 3SM TSRA OVC050CB
     FM291400 28011KT P6SM FEW050 BKN250=



000
FTUS43 KLOT 281605 AAB
TAFGYY
TAF AMD
KGYY 281605Z 2816/2912 15009KT P6SM SCT050 SCT250
     FM281800 08010KT P6SM FEW050 BKN250
     FM290100 14005KT P6SM SCT120 BKN250
     FM290700 18005KT P6SM BKN050 PROB30 2908/2912 3SM TSRA
      OVC050CB=



000
FTUS43 KLOT 281605 AAB
TAFRFD
TAF AMD
KRFD 281605Z 2816/2912 16007KT P6SM SCT050 BKN250
     FM282100 15009KT P6SM SCT050 BKN120
     FM290100 16006KT P6SM BKN050
      TEMPO 2904/2908 3SM TSRA SCT020 OVC050CB
     FM290800 23006KT 5SM BR BKN020=



000
FTUS43 KLOT 281605 AAB
TAFDPA
TAF AMD
KDPA 281605Z 2816/2912 16007KT P6SM SCT050 BKN250
     FM290100 14005KT P6SM SCT120 BKN250
     FM290600 19006KT P6SM BKN050 PROB30 2907/2912 3SM TSRA
      OVC050CB=



000
FTUS43 KLOT 281605 AAB
TAFMDW
TAF AMD
KMDW 281605Z 2816/2912 14010KT P6SM SCT040 BKN250
     FM290100 14006KT P6SM SCT120 BKN250
     FM290700 19006KT P6SM BKN050 PROB30 2908/2912 3SM TSRA
      OVC050CB=



000
FTUS43 KLOT 281410 AAA
TAFMDW
TAF AMD
KMDW 281410Z 2814/2912 14009KT P6SM SCT250
     FM281600 11010KT P6SM SCT050 BKN250
     FM290100 14006KT P6SM SCT120 BKN250
     FM290700 19006KT P6SM BKN050 PROB30 2908/2912 3SM TSRA
      OVC050CB=



000
FTUS43 KLOT 281410 AAA
TAFGYY
TAF AMD
KGYY 281410Z 2814/2912 13009KT P6SM SCT250
     FM281800 08010KT P6SM FEW050 BKN250
     FM290100 14005KT P6SM SCT120 BKN250
     FM290700 18005KT P6SM BKN050 PROB30 2908/2912 3SM TSRA
      OVC050CB=



000
FTUS43 KLOT 281410 AAA
TAFRFD
TAF AMD
KRFD 281410Z 2814/2912 14009KT P6SM SCT250
     FM281600 15010KT P6SM SCT050 BKN250
     FM282100 15009KT P6SM SCT050 BKN120
     FM290100 16006KT P6SM BKN050
      TEMPO 2904/2908 3SM TSRA SCT020 OVC050CB
     FM290800 23006KT 5SM BR BKN020=



000
FTUS43 KLOT 281410 AAA
TAFGYY
TAF AMD
KGYY 281410Z 2814/2912 13009KT P6SM SCT250
     FM281800 08010KT P6SM FEW050 BKN250
     FM290100 14005KT P6SM SCT120 BKN250
     FM290700 18005KT P6SM BKN050 PROB30 2908/2912 3SM TSRA
      OVC050CB=



000
FTUS43 KLOT 281410 AAA
TAFDPA
TAF AMD
KDPA 281410Z 2814/2912 14009KT P6SM SCT250
     FM281600 13010KT P6SM SCT050 BKN250
     FM290100 14005KT P6SM SCT120 BKN250
     FM290600 19006KT P6SM BKN050 PROB30 2907/2912 3SM TSRA
      OVC050CB=



000
FTUS43 KLOT 281410 AAA
TAFORD
TAF AMD
KORD 281410Z 2814/2918 14009KT P6SM SCT250
     FM281600 12010KT P6SM SCT050 BKN250
     FM290100 14006KT P6SM SCT120 BKN250
     FM290700 19006KT P6SM BKN050 PROB30 2908/2914 3SM TSRA OVC050CB
     FM291400 28011KT P6SM FEW050 BKN250=



000
FTUS43 KLOT 281130
TAFGYY
TAF
KGYY 281130Z 2812/2912 11007KT P6SM SCT250
     FM281800 08010KT P6SM FEW050 BKN250
     FM290100 14005KT P6SM SCT120 BKN250
     FM290700 18005KT P6SM BKN050 PROB30 2908/2912 3SM TSRA
      OVC050CB=



000
FTUS43 KLOT 281130
TAFGYY
TAF
KGYY 281130Z 2812/2912 11007KT P6SM SCT250
     FM281800 08010KT P6SM FEW050 BKN250
     FM290100 14005KT P6SM SCT120 BKN250
     FM290700 18005KT P6SM BKN050 PROB30 2908/2912 3SM TSRA
      OVC050CB=



000
FTUS43 KLOT 281130
TAFRFD
TAF
KRFD 281130Z 2812/2912 13007KT P6SM SCT250
     FM281600 15010KT P6SM SCT050 BKN250
     FM282100 15009KT P6SM SCT050 BKN120
     FM290100 16006KT P6SM BKN050
      TEMPO 2904/2908 3SM TSRA SCT020 OVC050CB
     FM290800 23006KT 5SM BR BKN020=



000
FTUS43 KLOT 281130
TAFDPA
TAF
KDPA 281130Z 2812/2912 12007KT P6SM SCT250
     FM281600 13010KT P6SM SCT050 BKN250
     FM290100 14005KT P6SM SCT120 BKN250
     FM290600 19006KT P6SM BKN050 PROB30 2907/2912 3SM TSRA
      OVC050CB=



000
FTUS43 KLOT 281130
TAFORD
TAF
KORD 281130Z 2812/2918 12007KT P6SM SCT250
     FM281600 11010KT P6SM SCT050 BKN250
     FM290100 14006KT P6SM SCT120 BKN250
     FM290700 19006KT P6SM BKN050 PROB30 2908/2914 3SM TSRA OVC050CB
     FM291400 28011KT P6SM FEW050 BKN250=



000
FTUS43 KLOT 281130
TAFMDW
TAF
KMDW 281130Z 2812/2912 12007KT P6SM SCT250
     FM281600 11010KT P6SM SCT050 BKN250
     FM290100 14006KT P6SM SCT120 BKN250
     FM290700 19006KT P6SM BKN050 PROB30 2908/2912 3SM TSRA
      OVC050CB=



000
FTUS43 KLOT 281130
TAFGYY
TAF
KGYY 281130Z 2812/2912 11007KT P6SM SCT250
     FM281800 08010KT P6SM FEW050 BKN250
     FM290100 14005KT P6SM SCT120 BKN250
     FM290700 18005KT P6SM BKN050 PROB30 2908/2912 3SM TSRA
      OVC050CB=



000
FTUS43 KLOT 280900 AAA
TAFMDW
TAF AMD
KMDW 280900Z 2809/2906 08005KT P6SM FEW250
     FM281200 12006KT P6SM SCT250
     FM281600 11010KT P6SM FEW050 BKN250
     FM290200 14006KT P6SM SCT120 BKN250=



000
FTUS43 KLOT 280900 AAA
TAFORD
TAF AMD
KORD 280900Z 2809/2912 08005KT P6SM FEW250
     FM281200 12006KT P6SM SCT250
     FM281600 11010KT P6SM FEW050 BKN250
     FM290200 14006KT P6SM SCT120 BKN250 PROB30 2906/2912 3SM TSRA
      OVC050CB=



000
FTUS43 KLOT 280900 AAA
TAFRFD
TAF AMD
KRFD 280900Z 2809/2906 13006KT P6SM SCT250
     FM281700 15010KT P6SM SCT050 BKN250
     FM282100 15009KT P6SM SCT050 BKN120
     FM290100 16006KT P6SM BKN050
      TEMPO 2904/2906 3SM TSRA OVC050CB=



000
FTUS43 KLOT 280900 AAA
TAFGYY
TAF AMD
KGYY 280900Z 2809/2906 VRB03KT P6SM FEW250
     FM281200 11007KT P6SM SCT250
     FM281800 07010KT P6SM FEW050 BKN250
     FM290200 14005KT P6SM SCT120 BKN250=



000
FTUS43 KLOT 280900 AAA
TAFORD
TAF AMD
KORD 280900Z 2809/2912 08005KT P6SM FEW250
     FM281200 12006KT P6SM SCT250
     FM281600 11010KT P6SM FEW050 BKN250
     FM290200 14006KT P6SM SCT120 BKN250 PROB30 2906/2912 3SM TSRA
      OVC050CB=



000
FTUS43 KLOT 280900 AAA
TAFRFD
TAF AMD
KRFD 280900Z 2809/2906 13006KT P6SM SCT250
     FM281700 15010KT P6SM SCT050 BKN250
     FM282100 15009KT P6SM SCT050 BKN120
     FM290100 16006KT P6SM BKN050
      TEMPO 2904/2906 3SM TSRA OVC050CB=



000
FTUS43 KLOT 280900 AAA
TAFDPA
TAF AMD
KDPA 280900Z 2809/2906 08004KT P6SM FEW250
     FM281200 12006KT P6SM SCT250
     FM281600 13010KT P6SM SCT050 BKN250
     FM290200 14005KT P6SM SCT120 BKN250=



000
FTUS43 KLOT 280900 AAA
TAFDPA
TAF AMD
KDPA 280900Z 2809/2906 08004KT P6SM FEW250
     FM281200 12006KT P6SM SCT250
     FM281600 13010KT P6SM SCT050 BKN250
     FM290200 14005KT P6SM SCT120 BKN250=



000
FTUS43 KLOT 280900 AAA
TAFMDW
TAF AMD
KMDW 280900Z 2809/2906 08005KT P6SM FEW250
     FM281200 12006KT P6SM SCT250
     FM281600 11010KT P6SM FEW050 BKN250
     FM290200 14006KT P6SM SCT120 BKN250=



000
FTUS43 KLOT 280900 AAA
TAFGYY
TAF AMD
KGYY 280900Z 2809/2906 VRB03KT P6SM FEW250
     FM281200 11007KT P6SM SCT250
     FM281800 07010KT P6SM FEW050 BKN250
     FM290200 14005KT P6SM SCT120 BKN250=



000
FTUS43 KLOT 280900 AAA
TAFGYY
TAF AMD
KGYY 280900Z 2809/2906 VRB03KT P6SM FEW250
     FM281200 11007KT P6SM SCT250
     FM281800 07010KT P6SM FEW050 BKN250
     FM290200 14005KT P6SM SCT120 BKN250=



000
FTUS43 KLOT 280520
TAFGYY
TAF
KGYY 280520Z 2806/2906 07005KT P6SM SCT250
     FM281200 11007KT P6SM SCT250
     FM281800 07010KT P6SM FEW050 BKN250
     FM290200 14005KT P6SM SCT120 BKN250=



000
FTUS43 KLOT 280520
TAFRFD
TAF
KRFD 280520Z 2806/2906 10004KT P6SM SCT250
     FM281200 13006KT P6SM SCT250
     FM281700 15010KT P6SM SCT050 BKN250
     FM282100 15009KT P6SM SCT050 BKN120
     FM290100 16006KT P6SM BKN050
      TEMPO 2904/2906 3SM TSRA OVC050CB=



000
FTUS43 KLOT 280520
TAFDPA
TAF
KDPA 280520Z 2806/2906 08004KT P6SM SCT250
     FM281200 12006KT P6SM SCT250
     FM281600 13010KT P6SM SCT050 BKN250
     FM290200 14005KT P6SM SCT120 BKN250=



000
FTUS43 KLOT 280520
TAFORD
TAF
KORD 280520Z 2806/2912 08005KT P6SM SCT250
     FM281200 12006KT P6SM SCT250
     FM281600 11010KT P6SM FEW050 BKN250
     FM290200 14006KT P6SM SCT120 BKN250 PROB30 2906/2912 3SM TSRA
      OVC050CB=



000
FTUS43 KLOT 280520
TAFGYY
TAF
KGYY 280520Z 2806/2906 07005KT P6SM SCT250
     FM281200 11007KT P6SM SCT250
     FM281800 07010KT P6SM FEW050 BKN250
     FM290200 14005KT P6SM SCT120 BKN250=



000
FTUS43 KLOT 280520
TAFMDW
TAF
KMDW 280520Z 2806/2906 08005KT P6SM SCT250
     FM281200 12006KT P6SM SCT250
     FM281600 11010KT P6SM FEW050 BKN250
     FM290200 14006KT P6SM SCT120 BKN250=



000
FTUS43 KLOT 280520
TAFDPA
TAF
KDPA 280520Z 2806/2906 08004KT P6SM SCT250
     FM281200 12006KT P6SM SCT250
     FM281600 13010KT P6SM SCT050 BKN250
     FM290200 14005KT P6SM SCT120 BKN250=



000
FTUS43 KLOT 280520
TAFGYY
TAF
KGYY 280520Z 2806/2906 07005KT P6SM SCT250
     FM281200 11007KT P6SM SCT250
     FM281800 07010KT P6SM FEW050 BKN250
     FM290200 14005KT P6SM SCT120 BKN250=



000
FTUS43 KLOT 280520
TAFRFD
TAF
KRFD 280520Z 2806/2906 10004KT P6SM SCT250
     FM281200 13006KT P6SM SCT250
     FM281700 15010KT P6SM SCT050 BKN250
     FM282100 15009KT P6SM SCT050 BKN120
     FM290100 16006KT P6SM BKN050
      TEMPO 2904/2906 3SM TSRA OVC050CB=



000
FTUS43 KLOT 280311 AAA
TAFORD
TAF AMD
KORD 280311Z 2803/2906 08005KT P6SM BKN250
     FM281200 11006KT P6SM SCT250
     FM281700 14010KT P6SM FEW050 BKN250
     FM282000 09010KT P6SM FEW050 BKN250
     FM290000 12006KT P6SM FEW050 SCT120 BKN250=



000
FTUS43 KLOT 280311 AAA
TAFGYY
TAF AMD
KGYY 280311Z 2803/2824 09007KT P6SM BKN250
     FM281200 11006KT P6SM SCT250
     FM281700 13010KT P6SM FEW050 BKN250
     FM282000 06010KT P6SM FEW050 BKN250=



000
FTUS43 KLOT 280311 AAA
TAFORD
TAF AMD
KORD 280311Z 2803/2906 08005KT P6SM BKN250
     FM281200 11006KT P6SM SCT250
     FM281700 14010KT P6SM FEW050 BKN250
     FM282000 09010KT P6SM FEW050 BKN250
     FM290000 12006KT P6SM FEW050 SCT120 BKN250=



000
FTUS43 KLOT 280311 AAA
TAFRFD
TAF AMD
KRFD 280311Z 2803/2824 11005KT P6SM BKN250
     FM281700 15010KT P6SM FEW050 BKN250
     FM282100 16009KT P6SM SCT050 SCT120 BKN250=



000
FTUS43 KLOT 280311 AAA
TAFGYY
TAF AMD
KGYY 280311Z 2803/2824 09007KT P6SM BKN250
     FM281200 11006KT P6SM SCT250
     FM281700 13010KT P6SM FEW050 BKN250
     FM282000 06010KT P6SM FEW050 BKN250=



000
FTUS43 KLOT 280311 AAA
TAFGYY
TAF AMD
KGYY 280311Z 2803/2824 09007KT P6SM BKN250
     FM281200 11006KT P6SM SCT250
     FM281700 13010KT P6SM FEW050 BKN250
     FM282000 06010KT P6SM FEW050 BKN250=



000
FTUS43 KLOT 280311 AAA
TAFGYY
TAF AMD
KGYY 280311Z 2803/2824 09007KT P6SM BKN250
     FM281200 11006KT P6SM SCT250
     FM281700 13010KT P6SM FEW050 BKN250
     FM282000 06010KT P6SM FEW050 BKN250=



000
FTUS43 KLOT 280311 AAA
TAFRFD
TAF AMD
KRFD 280311Z 2803/2824 11005KT P6SM BKN250
     FM281700 15010KT P6SM FEW050 BKN250
     FM282100 16009KT P6SM SCT050 SCT120 BKN250=



000
FTUS43 KLOT 280311 AAA
TAFDPA
TAF AMD
KDPA 280311Z 2803/2824 09004KT P6SM BKN250
     FM281200 11006KT P6SM SCT250
     FM281700 14010KT P6SM FEW050 BKN250=



000
FTUS43 KLOT 280311 AAA
TAFMDW
TAF AMD
KMDW 280311Z 2803/2824 08005KT P6SM BKN250
     FM281200 11006KT P6SM SCT250
     FM281700 14010KT P6SM FEW050 BKN250
     FM282000 09010KT P6SM FEW050 BKN250=



000
FTUS43 KLOT 280311 AAA
TAFMDW
TAF AMD
KMDW 280311Z 2803/2824 08005KT P6SM BKN250
     FM281200 11006KT P6SM SCT250
     FM281700 14010KT P6SM FEW050 BKN250
     FM282000 09010KT P6SM FEW050 BKN250=



000
FTUS43 KLOT 280311 AAA
TAFDPA
TAF AMD
KDPA 280311Z 2803/2824 09004KT P6SM BKN250
     FM281200 11006KT P6SM SCT250
     FM281700 14010KT P6SM FEW050 BKN250=



000
FTUS43 KLOT 272332
TAFDPA
TAF
KDPA 272332Z 2800/2824 08007KT P6SM FEW060 BKN250
     FM281200 11006KT P6SM SCT250
     FM281700 14010KT P6SM FEW050 BKN250=



000
FTUS43 KLOT 272332
TAFORD
TAF
KORD 272332Z 2800/2906 07010KT P6SM FEW060 BKN250
     FM280130 07005KT P6SM BKN250
     FM281200 11006KT P6SM SCT250
     FM281700 14010KT P6SM FEW050 BKN250
     FM282000 09010KT P6SM FEW050 BKN250
     FM290000 12006KT P6SM FEW050 SCT120 BKN250=



000
FTUS43 KLOT 272332
TAFMDW
TAF
KMDW 272332Z 2800/2824 07010KT P6SM FEW060 BKN250
     FM280130 07005KT P6SM BKN250
     FM281200 11006KT P6SM SCT250
     FM281700 14010KT P6SM FEW050 BKN250
     FM282000 09010KT P6SM FEW050 BKN250=



000
FTUS43 KLOT 272332
TAFGYY
TAF
KGYY 272332Z 2800/2824 06008KT P6SM FEW060 BKN250
     FM281200 10006KT P6SM SCT250
     FM281700 13010KT P6SM FEW050 BKN250
     FM282000 06010KT P6SM FEW050 BKN250=



000
FTUS43 KLOT 272332
TAFRFD
TAF
KRFD 272332Z 2800/2824 10006KT P6SM FEW060 BKN250
     FM281700 15010KT P6SM FEW050 BKN250
     FM282100 16009KT P6SM SCT050 SCT120 BKN250=



000
FTUS43 KLOT 272332
TAFGYY
TAF
KGYY 272332Z 2800/2824 06008KT P6SM FEW060 BKN250
     FM281200 10006KT P6SM SCT250
     FM281700 13010KT P6SM FEW050 BKN250
     FM282000 06010KT P6SM FEW050 BKN250=



000
FTUS43 KLOT 272204 AAB
TAFGYY
TAF AMD
KGYY 272204Z 2722/2818 05012KT P6SM BKN250
     FM280100 07006KT P6SM BKN250
     FM280600 11004KT P6SM SKC
     FM281600 13008KT P6SM SKC=



000
FTUS43 KLOT 272204 AAB
TAFGYY
TAF AMD
KGYY 272204Z 2722/2818 05012KT P6SM BKN250
     FM280100 07006KT P6SM BKN250
     FM280600 11004KT P6SM SKC
     FM281600 13008KT P6SM SKC=



000
FTUS43 KLOT 272204 AAB
TAFRFD
TAF AMD
KRFD 272204Z 2722/2818 11009KT P6SM FEW040 BKN250
     FM280100 11005KT P6SM BKN250
     FM281400 15009KT P6SM SKC=



000
FTUS43 KLOT 272204 AAB
TAFGYY
TAF AMD
KGYY 272204Z 2722/2818 05012KT P6SM BKN250
     FM280100 07006KT P6SM BKN250
     FM280600 11004KT P6SM SKC
     FM281600 13008KT P6SM SKC=



000
FTUS43 KLOT 272204 AAB
TAFMDW
TAF AMD
KMDW 272204Z 2722/2818 08012KT P6SM FEW060 BKN250
     FM280100 08007KT P6SM BKN250
     FM281000 11004KT P6SM SKC
     FM281600 14008KT P6SM FEW050=



000
FTUS43 KLOT 272204 AAB
TAFDPA
TAF AMD
KDPA 272204Z 2722/2818 12009KT P6SM FEW060 BKN250
     FM280100 09006KT P6SM BKN250
     FM280800 VRB03KT P6SM SKC
     FM281400 14006KT P6SM SKC=



000
FTUS43 KLOT 272204 AAB
TAFORD
TAF AMD
KORD 272204Z 2722/2824 08012KT P6SM BKN250
     FM280000 08007KT P6SM BKN250
     FM281200 12004KT P6SM SKC
     FM281800 15010KT P6SM FEW050
     FM282000 15010G15KT P6SM SCT050
     FM282200 15010KT P6SM SCT050=



000
FTUS43 KLOT 271959 AAA
TAFORD
TAF AMD
KORD 271959Z 2720/2824 09012G18KT P6SM FEW060 SCT250
     FM280000 08007KT P6SM SCT050
     FM281200 12004KT P6SM SKC
     FM281800 15010KT P6SM FEW050
     FM282000 15010G15KT P6SM SCT050
     FM282200 15010KT P6SM SCT050=



000
FTUS43 KLOT 271959 AAA
TAFRFD
TAF AMD
KRFD 271959Z 2720/2818 13012KT P6SM BKN040 BKN250
     FM280200 11005KT P6SM SCT030
     FM281400 15009KT P6SM SKC=



000
FTUS43 KLOT 271959 AAA
TAFGYY
TAF AMD
KGYY 271959Z 2720/2818 06012G18KT P6SM SCT250
     FM280200 07006KT P6SM FEW050
     FM280600 11004KT P6SM SKC
     FM281600 13008KT P6SM SKC=



000
FTUS43 KLOT 271959 AAA
TAFMDW
TAF AMD
KMDW 271959Z 2720/2818 08012G18KT P6SM FEW060 SCT250
     FM280200 08007KT P6SM FEW050
     FM281000 11004KT P6SM SKC
     FM281600 14008KT P6SM FEW050=



000
FTUS43 KLOT 271959 AAA
TAFDPA
TAF AMD
KDPA 271959Z 2720/2818 14012KT P6SM SKC
     FM280200 09006KT P6SM FEW040
     FM280800 VRB03KT P6SM SKC
     FM281400 14006KT P6SM SKC=



000
FTUS43 KLOT 271738
TAFMDW
TAF
KMDW 271738Z 2718/2818 10012G17KT P6SM FEW050
     FM280200 08007KT P6SM FEW050
     FM281000 11004KT P6SM SKC
     FM281600 14008KT P6SM FEW050=



000
FTUS43 KLOT 271738
TAFRFD
TAF
KRFD 271738Z 2718/2818 13009KT P6SM SCT028 BKN035
     FM280200 11005KT P6SM SCT030
     FM281400 15009KT P6SM SKC=



000
FTUS43 KLOT 271738
TAFGYY
TAF
KGYY 271738Z 2718/2818 12012G18KT P6SM FEW050
     FM280200 07006KT P6SM FEW050
     FM280600 11004KT P6SM SKC
     FM281600 13008KT P6SM SKC=



000
FTUS43 KLOT 271738
TAFDPA
TAF
KDPA 271738Z 2718/2818 10012KT P6SM FEW040
     FM280200 09006KT P6SM FEW040
     FM280800 VRB03KT P6SM SKC
     FM281400 14006KT P6SM SKC=



000
FTUS43 KLOT 271738
TAFORD
TAF
KORD 271738Z 2718/2824 10012KT P6SM FEW050
     FM280000 08007KT P6SM SCT050
     FM281200 12004KT P6SM SKC
     FM281800 15010KT P6SM FEW050
     FM282000 15010G15KT P6SM SCT050
     FM282200 15010KT P6SM SCT050=



000
FTUS43 KLOT 271738
TAFGYY
TAF
KGYY 271738Z 2718/2818 12012G18KT P6SM FEW050
     FM280200 07006KT P6SM FEW050
     FM280600 11004KT P6SM SKC
     FM281600 13008KT P6SM SKC=



000
FTUS43 KLOT 271559 AAB
TAFRFD
TAF AMD
KRFD 271559Z 2716/2812 11010KT P6SM SCT050 BKN250
     FM280100 11005KT P6SM FEW250=



000
FTUS43 KLOT 271559 AAB
TAFORD
TAF AMD
KORD 271559Z 2716/2818 09012KT P6SM FEW050 SCT250
     FM280200 09005KT P6SM FEW250
     FM281400 13009KT P6SM SCT050=



000
FTUS43 KLOT 271559 AAB
TAFGYY
TAF AMD
KGYY 271559Z 2716/2812 10009KT P6SM FEW050 SCT250
     FM280100 VRB03KT P6SM FEW250=



000
FTUS43 KLOT 271559 AAB
TAFDPA
TAF AMD
KDPA 271559Z 2716/2812 09010KT P6SM FEW050 SCT250
     FM280100 09005KT P6SM FEW250=



000
FTUS43 KLOT 271559 AAB
TAFMDW
TAF AMD
KMDW 271559Z 2716/2812 10012KT P6SM FEW050 SCT250
     FM280200 09005KT P6SM FEW250=



000
FTUS43 KLOT 271559 AAB
TAFGYY
TAF AMD
KGYY 271559Z 2716/2812 10009KT P6SM FEW050 SCT250
     FM280100 VRB03KT P6SM FEW250=



000
FTUS43 KLOT 271352 AAA
TAFORD
TAF AMD
KORD 271352Z 2714/2818 08006KT P6SM FEW120 BKN250
     FM271600 09010KT P6SM FEW050 SCT250
     FM280200 09005KT P6SM FEW250
     FM281400 13009KT P6SM SCT050=



000
FTUS43 KLOT 271352 AAA
TAFGYY
TAF AMD
KGYY 271352Z 2714/2812 VRB03KT P6SM SCT120 BKN250
     FM271500 06009KT P6SM FEW050 SCT250
     FM280100 VRB03KT P6SM FEW250=



000
FTUS43 KLOT 271352 AAA
TAFRFD
TAF AMD
KRFD 271352Z 2714/2812 08007KT P6SM FEW120 BKN250
     FM271500 11010KT P6SM SCT050 BKN250
     FM280100 11005KT P6SM FEW250=



000
FTUS43 KLOT 271352 AAA
TAFMDW
TAF AMD
KMDW 271352Z 2714/2812 08008KT P6SM FEW120 BKN250
     FM271600 09010KT P6SM FEW050 SCT250
     FM280200 09005KT P6SM FEW250=



000
FTUS43 KLOT 271352 AAA
TAFGYY
TAF AMD
KGYY 271352Z 2714/2812 VRB03KT P6SM SCT120 BKN250
     FM271500 06009KT P6SM FEW050 SCT250
     FM280100 VRB03KT P6SM FEW250=



000
FTUS43 KLOT 271352 AAA
TAFDPA
TAF AMD
KDPA 271352Z 2714/2812 08005KT P6SM FEW120 BKN250
     FM271600 09010KT P6SM FEW050 SCT250
     FM280100 09005KT P6SM FEW250=



000
FTUS43 KLOT 271123 CCA
TAFGYY
TAF COR
KGYY 271123Z 2712/2812 VRB03KT P6SM SCT120 BKN250
     FM271500 06009KT P6SM FEW050 SCT250
     FM280100 VRB03KT P6SM FEW250=



000
FTUS43 KLOT 271123 CCA
TAFGYY
TAF COR
KGYY 271123Z 2712/2812 VRB03KT P6SM SCT120 BKN250
     FM271500 06009KT P6SM FEW050 SCT250
     FM280100 VRB03KT P6SM FEW250=



000
FTUS43 KLOT 271123 CCA
TAFGYY
TAF COR
KGYY 271123Z 2712/2812 VRB03KT P6SM SCT120 BKN250
     FM271500 06009KT P6SM FEW050 SCT250
     FM280100 VRB03KT P6SM FEW250=



000
FTUS43 KLOT 271123 CCA
TAFGYY
TAF COR
KGYY 271123Z 2712/2812 VRB03KT P6SM SCT120 BKN250
     FM271500 06009KT P6SM FEW050 SCT250
     FM280100 VRB03KT P6SM FEW250=



000
FTUS43 KLOT 271120
TAFDPA
TAF
KDPA 271120Z 2712/2812 05005KT P6SM FEW120 BKN250
     FM271600 09010KT P6SM FEW050 SCT250
     FM280100 09005KT P6SM FEW250=



000
FTUS43 KLOT 271120
TAFRFD
TAF
KRFD 271120Z 2712/2812 08006KT P6SM FEW120 BKN250
     FM271500 11010KT P6SM SCT050 BKN250
     FM280100 11005KT P6SM FEW250=



000
FTUS43 KLOT 271120
TAFGYY
TAF
KGYY 271120Z 2712/2812 VRB03KT 3SM BR SCT120 BKN250
     FM271500 06009KT P6SM FEW050 SCT250
     FM280100 VRB03KT P6SM FEW250=



000
FTUS43 KLOT 271120
TAFORD
TAF
KORD 271120Z 2712/2818 04005KT P6SM FEW120 BKN250
     FM271600 09010KT P6SM FEW050 SCT250
     FM280200 09005KT P6SM FEW250
     FM281400 13009KT P6SM SCT050=



000
FTUS43 KLOT 271120
TAFGYY
TAF
KGYY 271120Z 2712/2812 VRB03KT 3SM BR SCT120 BKN250
     FM271500 06009KT P6SM FEW050 SCT250
     FM280100 VRB03KT P6SM FEW250=



000
FTUS43 KLOT 271120
TAFMDW
TAF
KMDW 271120Z 2712/2812 04005KT P6SM FEW120 BKN250
     FM271600 09010KT P6SM FEW050 SCT250
     FM280200 09005KT P6SM FEW250=



000
FTUS43 KLOT 270901 AAB
TAFGYY
TAF AMD
KGYY 270901Z 2709/2806 VRB03KT 3SM BR SCT120 BKN250
      TEMPO 2709/2711 1SM BR BKN004
     FM271500 06008KT P6SM FEW050 SCT250
     FM280100 VRB03KT P6SM FEW250=



000
FTUS43 KLOT 270901 AAA
TAFRFD
TAF AMD
KRFD 270901Z 2709/2806 05004KT P6SM FEW120 BKN250
     FM271500 11010KT P6SM SCT050 BKN250
     FM280100 11005KT P6SM FEW250=



000
FTUS43 KLOT 270901 AAB
TAFGYY
TAF AMD
KGYY 270901Z 2709/2806 VRB03KT 3SM BR SCT120 BKN250
      TEMPO 2709/2711 1SM BR BKN004
     FM271500 06008KT P6SM FEW050 SCT250
     FM280100 VRB03KT P6SM FEW250=



000
FTUS43 KLOT 270901 AAA
TAFDPA
TAF AMD
KDPA 270901Z 2709/2806 04004KT P6SM FEW120 BKN250
      TEMPO 2710/2712 5SM BR
     FM271600 09010KT P6SM FEW050 SCT250
     FM280100 09005KT P6SM FEW250=



000
FTUS43 KLOT 270901 AAA
TAFMDW
TAF AMD
KMDW 270901Z 2709/2806 04005KT P6SM FEW120 BKN250
     FM271600 09010KT P6SM FEW050 SCT250
     FM280200 11005KT P6SM FEW250=



000
FTUS43 KLOT 270901 AAA
TAFORD
TAF AMD
KORD 270901Z 2709/2812 04005KT P6SM FEW120 BKN250
     FM271600 09010KT P6SM FEW050 SCT250
     FM280200 11005KT P6SM FEW250=



000
FTUS43 KLOT 270901 AAA
TAFRFD
TAF AMD
KRFD 270901Z 2709/2806 05004KT P6SM FEW120 BKN250
     FM271500 11010KT P6SM SCT050 BKN250
     FM280100 11005KT P6SM FEW250=



000
FTUS43 KLOT 270901 AAA
TAFDPA
TAF AMD
KDPA 270901Z 2709/2806 04004KT P6SM FEW120 BKN250
      TEMPO 2710/2712 5SM BR
     FM271600 09010KT P6SM FEW050 SCT250
     FM280100 09005KT P6SM FEW250=



000
FTUS43 KLOT 270901 AAA
TAFMDW
TAF AMD
KMDW 270901Z 2709/2806 04005KT P6SM FEW120 BKN250
     FM271600 09010KT P6SM FEW050 SCT250
     FM280200 11005KT P6SM FEW250=



000
FTUS43 KLOT 270901 AAB
TAFGYY
TAF AMD
KGYY 270901Z 2709/2806 VRB03KT 3SM BR SCT120 BKN250
      TEMPO 2709/2711 1SM BR BKN004
     FM271500 06008KT P6SM FEW050 SCT250
     FM280100 VRB03KT P6SM FEW250=



000
FTUS43 KLOT 270901 AAA
TAFORD
TAF AMD
KORD 270901Z 2709/2812 04005KT P6SM FEW120 BKN250
     FM271600 09010KT P6SM FEW050 SCT250
     FM280200 11005KT P6SM FEW250=



000
FTUS43 KLOT 270624 AAA
TAFGYY
TAF AMD
KGYY 270624Z 2706/2806 VRB03KT 3SM BR SCT120 BKN250
     FM271500 06008KT P6SM FEW050 SCT250
     FM280100 VRB03KT P6SM FEW250=



000
FTUS43 KLOT 270624 AAA
TAFGYY
TAF AMD
KGYY 270624Z 2706/2806 VRB03KT 3SM BR SCT120 BKN250
     FM271500 06008KT P6SM FEW050 SCT250
     FM280100 VRB03KT P6SM FEW250=



000
FTUS43 KLOT 270624 AAA
TAFGYY
TAF AMD
KGYY 270624Z 2706/2806 VRB03KT 3SM BR SCT120 BKN250
     FM271500 06008KT P6SM FEW050 SCT250
     FM280100 VRB03KT P6SM FEW250=



000
FTUS43 KLOT 270624 AAA
TAFGYY
TAF AMD
KGYY 270624Z 2706/2806 VRB03KT 3SM BR SCT120 BKN250
     FM271500 06008KT P6SM FEW050 SCT250
     FM280100 VRB03KT P6SM FEW250=



000
FTUS43 KLOT 270520
TAFRFD
TAF
KRFD 270520Z 2706/2806 07004KT P6SM SCT120 BKN250
      TEMPO 2708/2712 5SM BR
     FM271500 11010KT P6SM SCT050 BKN250
     FM280100 11005KT P6SM FEW250=



000
FTUS43 KLOT 270520
TAFGYY
TAF
KGYY 270520Z 2706/2806 VRB03KT P6SM SCT120 BKN250
     FM271500 06008KT P6SM FEW050 SCT250
     FM280100 VRB03KT P6SM FEW250=



000
FTUS43 KLOT 270520
TAFORD
TAF
KORD 270520Z 2706/2812 05005KT P6SM FEW030 SCT120 BKN250
     FM271600 09010KT P6SM FEW050 SCT250
     FM280200 11005KT P6SM FEW250=



000
FTUS43 KLOT 270520
TAFDPA
TAF
KDPA 270520Z 2706/2806 05004KT P6SM SCT120 BKN250
      TEMPO 2708/2712 5SM BR
     FM271600 09010KT P6SM FEW050 SCT250
     FM280100 09005KT P6SM FEW250=



000
FTUS43 KLOT 270520
TAFRFD
TAF
KRFD 270520Z 2706/2806 07004KT P6SM SCT120 BKN250
      TEMPO 2708/2712 5SM BR
     FM271500 11010KT P6SM SCT050 BKN250
     FM280100 11005KT P6SM FEW250=



000
FTUS43 KLOT 270520
TAFORD
TAF
KORD 270520Z 2706/2812 05005KT P6SM FEW030 SCT120 BKN250
     FM271600 09010KT P6SM FEW050 SCT250
     FM280200 11005KT P6SM FEW250=



000
FTUS43 KLOT 270520
TAFMDW
TAF
KMDW 270520Z 2706/2806 05005KT P6SM FEW030 SCT120 BKN250
     FM271600 09010KT P6SM FEW050 SCT250
     FM280200 11005KT P6SM FEW250=



000
FTUS43 KLOT 270520
TAFGYY
TAF
KGYY 270520Z 2706/2806 VRB03KT P6SM SCT120 BKN250
     FM271500 06008KT P6SM FEW050 SCT250
     FM280100 VRB03KT P6SM FEW250=



000
FTUS43 KLOT 270520
TAFGYY
TAF
KGYY 270520Z 2706/2806 VRB03KT P6SM SCT120 BKN250
     FM271500 06008KT P6SM FEW050 SCT250
     FM280100 VRB03KT P6SM FEW250=



000
FTUS43 KLOT 270520
TAFMDW
TAF
KMDW 270520Z 2706/2806 05005KT P6SM FEW030 SCT120 BKN250
     FM271600 09010KT P6SM FEW050 SCT250
     FM280200 11005KT P6SM FEW250=



000
FTUS43 KLOT 270520
TAFDPA
TAF
KDPA 270520Z 2706/2806 05004KT P6SM SCT120 BKN250
      TEMPO 2708/2712 5SM BR
     FM271600 09010KT P6SM FEW050 SCT250
     FM280100 09005KT P6SM FEW250=



    US Dept of Commerce
    National Oceanic and Atmospheric Administration
    National Weather Service
    1325 East West Highway
    Silver Spring, MD 20910
    Page Author: NWS Internet Services Team
Disclaimer
Information Quality
Credits
Glossary
Privacy Policy
Freedom of Information Act (FOIA)
About Us
Career Opportunities